Time;durP1;ratioP1;P1;durP2;ratioP2;P2;SDS_P1;SDS_P2;PMS_P1;PMS_P2;Temp;Humidity;BMP_temperature;BMP_pressure;BME280_temperature;BME280_humidity;BME280_pressure;Samples;Min_cycle;Max_cycle;Signal;HPM_P1;HPM_P2
2022/05/28 00:01:17;;;;;;;7.47;3.03;;;11.20;99.90;;;;;;5012193;28;20045;-65
2022/05/28 00:03:46;;;;;;;6.47;2.92;;;11.10;99.90;;;;;;5026879;28;20481;-67
2022/05/28 00:06:16;;;;;;;8.07;3.15;;;11.10;99.90;;;;;;5037749;28;20494;-67
2022/05/28 00:08:45;;;;;;;9.65;3.00;;;11.10;99.90;;;;;;5035042;28;20073;-66
2022/05/28 00:11:37;;;;;;;6.72;2.80;;;11.00;99.90;;;;;;5030862;28;20412;-67
2022/05/28 00:14:05;;;;;;;14.10;3.33;;;10.90;99.90;;;;;;5022600;28;20132;-66
2022/05/28 00:16:33;;;;;;;10.75;3.20;;;10.80;99.90;;;;;;5029386;28;20049;-68
2022/05/28 00:19:01;;;;;;;9.55;3.50;;;10.70;99.90;;;;;;5035712;28;20507;-67
2022/05/28 00:21:28;;;;;;;8.07;3.28;;;10.70;99.90;;;;;;5039975;28;20511;-66
2022/05/28 00:23:56;;;;;;;9.23;3.42;;;10.70;99.90;;;;;;5029362;28;20041;-67
2022/05/28 00:26:23;;;;;;;8.32;3.03;;;10.60;99.90;;;;;;5027237;28;20504;-68
2022/05/28 00:28:51;;;;;;;10.98;3.47;;;10.60;99.90;;;;;;5031215;28;20072;-66
2022/05/28 00:31:19;;;;;;;14.43;4.07;;;10.50;99.90;;;;;;5031755;28;20045;-67
2022/05/28 00:33:47;;;;;;;7.68;3.15;;;10.40;99.90;;;;;;5032533;28;20049;-66
2022/05/28 00:36:15;;;;;;;8.45;3.40;;;10.30;99.90;;;;;;5031378;28;20049;-67
2022/05/28 00:38:44;;;;;;;6.05;3.03;;;10.30;99.90;;;;;;5031917;28;20579;-67
2022/05/28 00:41:12;;;;;;;6.32;3.60;;;10.30;99.90;;;;;;5022640;28;20411;-67
2022/05/28 00:43:42;;;;;;;7.75;3.28;;;10.30;99.90;;;;;;5031858;28;20128;-66
2022/05/28 00:46:23;;;;;;;12.55;3.88;;;10.20;99.90;;;;;;5031446;28;20046;-66
2022/05/28 00:48:56;;;;;;;8.27;3.60;;;10.20;99.90;;;;;;5033067;28;20077;-67
2022/05/28 00:51:30;;;;;;;7.25;3.90;;;10.10;99.90;;;;;;5044486;28;20650;-67
2022/05/28 00:54:02;;;;;;;10.27;3.47;;;10.10;99.90;;;;;;5032480;28;20064;-67
2022/05/28 00:56:29;;;;;;;9.70;3.85;;;10.10;99.90;;;;;;5024473;28;20053;-66
2022/05/28 00:58:58;;;;;;;11.05;3.72;;;10.10;99.90;;;;;;5032062;28;20044;-65
2022/05/28 01:01:29;;;;;;;8.85;3.58;;;10.00;99.90;;;;;;5031729;28;20095;-66
2022/05/28 01:04:10;;;;;;;8.73;3.55;;;10.00;99.90;;;;;;5031853;28;20091;-67
2022/05/28 01:06:42;;;;;;;8.80;3.55;;;9.90;99.90;;;;;;5041930;28;20096;-67
2022/05/28 01:09:24;;;;;;;16.23;3.88;;;9.80;99.90;;;;;;5030215;28;20081;-67
2022/05/28 01:12:14;;;;;;;10.85;3.83;;;9.80;99.90;;;;;;5031892;28;20084;-66
2022/05/28 01:14:53;;;;;;;13.30;4.00;;;9.80;99.90;;;;;;5032234;28;20606;-66
2022/05/28 01:17:26;;;;;;;12.00;4.28;;;9.70;99.90;;;;;;5038069;28;20124;-66
2022/05/28 01:20:04;;;;;;;12.02;5.53;;;9.70;99.90;;;;;;5040249;28;20045;-66
2022/05/28 01:22:44;;;;;;;7.55;3.42;;;9.60;99.90;;;;;;5039712;28;20072;-66
2022/05/28 01:25:33;;;;;;;7.18;3.65;;;9.50;99.90;;;;;;5034684;28;20067;-67
2022/05/28 01:28:13;;;;;;;13.27;4.00;;;9.50;99.90;;;;;;5026485;28;20081;-66
2022/05/28 01:30:43;;;;;;;11.35;3.60;;;9.40;99.90;;;;;;5021112;28;20095;-67
2022/05/28 01:33:14;;;;;;;8.02;3.58;;;9.40;99.90;;;;;;5042042;28;20053;-66
2022/05/28 01:35:44;;;;;;;7.10;3.90;;;9.40;99.90;;;;;;5020428;28;20477;-65
2022/05/28 01:38:13;;;;;;;9.98;3.58;;;9.30;99.90;;;;;;5030651;28;20338;-67
2022/05/28 01:40:41;;;;;;;13.77;4.45;;;9.20;99.90;;;;;;5042405;28;20120;-65
2022/05/28 01:43:12;;;;;;;8.60;4.07;;;9.10;99.90;;;;;;5029058;28;20049;-66
2022/05/28 01:45:44;;;;;;;9.65;4.00;;;9.10;99.90;;;;;;5032831;28;20057;-67
2022/05/28 01:48:13;;;;;;;10.48;4.43;;;9.10;99.90;;;;;;5024358;28;20067;-67
2022/05/28 01:50:45;;;;;;;12.13;4.38;;;9.10;99.90;;;;;;5036901;28;20045;-67
2022/05/28 01:54:07;;;;;;;7.55;3.63;;;9.00;99.90;;;;;;5046810;28;20515;-67
2022/05/28 01:56:06;;;;;;;9.98;3.28;;;9.00;99.90;;;;;;5021360;28;20049;-67
2022/05/28 01:58:34;;;;;;;10.75;4.55;;;9.00;99.90;;;;;;5029408;28;20042;-67
2022/05/28 02:01:04;;;;;;;13.45;4.22;;;9.00;99.90;;;;;;5042150;28;20045;-67
2022/05/28 02:03:34;;;;;;;13.38;5.60;;;8.90;99.90;;;;;;5030357;28;20452;-67
2022/05/28 02:06:02;;;;;;;13.27;4.65;;;8.80;99.90;;;;;;5028715;28;20049;-67
2022/05/28 02:08:35;;;;;;;12.25;4.57;;;8.80;99.90;;;;;;5040506;28;20049;-67
2022/05/28 02:11:26;;;;;;;10.88;4.30;;;8.80;99.90;;;;;;5040971;28;20056;-67
2022/05/28 02:14:31;;;;;;;11.55;4.43;;;8.80;99.90;;;;;;5040874;28;20049;-67
2022/05/28 02:17:05;;;;;;;10.10;3.88;;;8.70;99.90;;;;;;5035027;28;20096;-67
2022/05/28 02:19:57;;;;;;;12.98;4.03;;;8.70;99.90;;;;;;5024119;28;20034;-66
2022/05/28 02:22:39;;;;;;;8.85;3.90;;;8.70;99.90;;;;;;5032640;28;20569;-66
2022/05/28 02:25:15;;;;;;;8.18;4.32;;;8.60;99.90;;;;;;5022990;28;20124;-66
2022/05/28 02:27:44;;;;;;;8.82;3.88;;;8.60;99.90;;;;;;5029879;28;20676;-67
2022/05/28 02:30:12;;;;;;;8.85;4.03;;;8.60;99.90;;;;;;5034723;28;20044;-67
2022/05/28 02:32:39;;;;;;;9.93;3.90;;;8.60;99.90;;;;;;5034253;28;20051;-66
2022/05/28 02:35:09;;;;;;;12.35;3.83;;;8.50;99.90;;;;;;5040114;28;20432;-67
2022/05/28 02:37:37;;;;;;;13.88;4.15;;;8.50;99.90;;;;;;5044868;28;20133;-67
2022/05/28 02:40:05;;;;;;;18.52;4.03;;;8.50;99.90;;;;;;5042552;28;20068;-67
2022/05/28 02:42:32;;;;;;;11.25;4.07;;;8.50;99.90;;;;;;5044369;28;20041;-67
2022/05/28 02:45:00;;;;;;;13.38;4.25;;;8.40;99.90;;;;;;5043612;28;20060;-66
2022/05/28 02:47:27;;;;;;;10.73;3.70;;;8.30;99.90;;;;;;5035509;28;20041;-67
2022/05/28 02:49:55;;;;;;;12.95;3.53;;;8.30;99.90;;;;;;5044195;28;20144;-66
2022/05/28 02:52:22;;;;;;;10.60;3.70;;;8.30;99.90;;;;;;5034698;28;20095;-67
2022/05/28 02:54:50;;;;;;;8.00;4.18;;;8.30;99.90;;;;;;5037404;28;20049;-67
2022/05/28 02:57:17;;;;;;;9.27;3.65;;;8.30;99.90;;;;;;5025130;28;20053;-67
2022/05/28 02:59:44;;;;;;;9.80;3.50;;;8.40;99.90;;;;;;5032111;28;20056;-67
2022/05/28 03:02:12;;;;;;;8.75;4.20;;;8.40;99.90;;;;;;5029592;28;20544;-67
2022/05/28 03:04:39;;;;;;;10.63;3.65;;;8.40;99.90;;;;;;5028422;28;20041;-67
2022/05/28 03:07:06;;;;;;;14.38;4.40;;;8.40;99.90;;;;;;5022830;28;20435;-67
2022/05/28 03:09:34;;;;;;;12.38;3.78;;;8.30;99.90;;;;;;5034322;28;20037;-66
2022/05/28 03:12:01;;;;;;;12.60;3.80;;;8.30;99.90;;;;;;5043428;28;20447;-67
2022/05/28 03:14:28;;;;;;;11.05;4.28;;;8.30;99.90;;;;;;5033892;28;20076;-66
2022/05/28 03:16:56;;;;;;;8.73;3.67;;;8.30;99.90;;;;;;5040810;28;20179;-68
2022/05/28 03:19:23;;;;;;;9.13;3.45;;;8.30;99.90;;;;;;5040351;28;20041;-67
2022/05/28 03:21:50;;;;;;;9.68;3.78;;;8.30;99.90;;;;;;5039248;28;20045;-66
2022/05/28 03:24:19;;;;;;;11.48;3.47;;;8.30;99.90;;;;;;5036251;28;20045;-67
2022/05/28 03:26:46;;;;;;;10.88;3.80;;;8.30;99.90;;;;;;5041891;28;20037;-66
2022/05/28 03:29:14;;;;;;;12.40;3.38;;;8.20;99.90;;;;;;5025095;28;20041;-65
2022/05/28 03:31:41;;;;;;;12.27;3.50;;;8.30;99.90;;;;;;5030941;28;20041;-66
2022/05/28 03:34:08;;;;;;;11.68;3.20;;;8.20;99.90;;;;;;5031074;28;20079;-66
2022/05/28 03:36:35;;;;;;;10.27;3.97;;;8.20;99.90;;;;;;5029567;28;20572;-66
2022/05/28 03:39:03;;;;;;;8.18;3.13;;;8.30;99.90;;;;;;5016611;28;20056;-67
2022/05/28 03:41:30;;;;;;;9.35;2.97;;;8.30;99.90;;;;;;5028631;28;20511;-66
2022/05/28 03:43:57;;;;;;;10.63;3.60;;;8.30;99.90;;;;;;5033887;28;20045;-67
2022/05/28 03:46:28;;;;;;;13.23;3.55;;;8.30;99.90;;;;;;5042583;28;20053;-66
2022/05/28 03:49:19;;;;;;;10.32;3.10;;;8.40;99.90;;;;;;5043828;28;20049;-66
2022/05/28 03:51:47;;;;;;;13.40;3.80;;;8.40;99.90;;;;;;5046392;28;20068;-66
2022/05/28 03:54:14;;;;;;;15.88;3.30;;;8.40;99.90;;;;;;5044273;28;20099;-66
2022/05/28 03:56:43;;;;;;;13.07;3.50;;;8.40;99.90;;;;;;5029302;28;20140;-67
2022/05/28 03:59:11;;;;;;;9.73;3.30;;;8.50;99.90;;;;;;5027159;28;20049;-66
2022/05/28 04:01:38;;;;;;;9.93;3.13;;;8.50;99.90;;;;;;5042183;28;20096;-67
2022/05/28 04:04:06;;;;;;;7.32;3.33;;;8.50;99.90;;;;;;5031692;28;20037;-68
2022/05/28 04:06:37;;;;;;;13.60;3.33;;;8.60;99.90;;;;;;5032291;28;20037;-67
2022/05/28 04:09:06;;;;;;;8.48;3.42;;;8.60;99.90;;;;;;5033327;28;20053;-66
2022/05/28 04:11:35;;;;;;;12.88;3.80;;;8.60;99.90;;;;;;5034040;28;20115;-67
2022/05/28 04:14:04;;;;;;;11.52;3.42;;;8.60;99.90;;;;;;5046453;28;20052;-67
2022/05/28 04:16:32;;;;;;;12.43;3.45;;;8.60;99.90;;;;;;5033265;28;20045;-67
2022/05/28 04:18:59;;;;;;;13.35;3.47;;;8.60;99.90;;;;;;5034620;28;20049;-67
2022/05/28 04:21:26;;;;;;;12.23;4.03;;;8.60;99.90;;;;;;5051133;28;20547;-67
2022/05/28 04:23:54;;;;;;;13.18;3.85;;;8.60;99.90;;;;;;5043137;28;20500;-67
2022/05/28 04:26:21;;;;;;;9.02;3.65;;;8.60;99.90;;;;;;5038929;28;20116;-67
2022/05/28 04:28:48;;;;;;;11.35;3.53;;;8.60;99.90;;;;;;5031637;28;20041;-66
2022/05/28 04:31:16;;;;;;;11.50;3.25;;;8.70;99.90;;;;;;5033806;28;20148;-65
2022/05/28 04:33:43;;;;;;;9.43;3.03;;;8.70;99.90;;;;;;5041823;28;20499;-66
2022/05/28 04:36:10;;;;;;;11.05;3.13;;;8.80;99.90;;;;;;5039245;28;20136;-66
2022/05/28 04:38:39;;;;;;;13.60;3.20;;;8.80;99.90;;;;;;5032209;28;20084;-66
2022/05/28 04:41:06;;;;;;;7.53;3.28;;;8.90;99.90;;;;;;5044475;28;20037;-67
2022/05/28 04:43:33;;;;;;;12.77;3.35;;;9.00;99.90;;;;;;5041995;28;20503;-66
2022/05/28 04:46:00;;;;;;;10.88;3.40;;;9.00;99.90;;;;;;5043302;28;20488;-66
2022/05/28 04:48:28;;;;;;;10.27;3.17;;;9.00;99.90;;;;;;5035227;28;20180;-66
2022/05/28 04:50:55;;;;;;;6.57;3.08;;;9.10;99.90;;;;;;5042222;28;20054;-66
2022/05/28 04:53:23;;;;;;;11.55;3.50;;;9.10;99.90;;;;;;5040014;28;20086;-67
2022/05/28 04:55:50;;;;;;;11.35;2.88;;;9.20;99.90;;;;;;5029442;28;20054;-67
2022/05/28 04:58:18;;;;;;;14.80;3.30;;;9.20;99.90;;;;;;5022422;28;20578;-66
2022/05/28 05:00:46;;;;;;;7.85;2.95;;;9.30;99.90;;;;;;5041180;28;20037;-66
2022/05/28 05:03:14;;;;;;;15.25;2.90;;;9.40;99.90;;;;;;5027647;28;20045;-66
2022/05/28 05:05:42;;;;;;;12.25;2.70;;;9.50;99.90;;;;;;5030991;28;20045;-67
2022/05/28 05:08:09;;;;;;;9.68;2.67;;;9.60;99.90;;;;;;5035279;28;20041;-66
2022/05/28 05:10:37;;;;;;;8.40;3.17;;;9.60;99.90;;;;;;5043777;28;20516;-67
2022/05/28 05:13:06;;;;;;;9.48;3.13;;;9.70;99.90;;;;;;5036018;28;20088;-66
2022/05/28 05:15:33;;;;;;;11.55;3.17;;;9.70;99.90;;;;;;5041809;28;20045;-67
2022/05/28 05:18:01;;;;;;;10.48;2.83;;;9.80;99.90;;;;;;5044489;28;20045;-67
2022/05/28 05:20:28;;;;;;;8.10;2.53;;;9.90;99.90;;;;;;5039318;28;20211;-69
2022/05/28 05:22:56;;;;;;;9.07;2.63;;;10.00;99.90;;;;;;5023324;28;20101;-67
2022/05/28 05:25:23;;;;;;;10.73;2.78;;;10.00;99.90;;;;;;5032166;28;20134;-67
2022/05/28 05:27:51;;;;;;;7.38;2.20;;;10.10;99.90;;;;;;5043765;28;20131;-67
2022/05/28 05:30:18;;;;;;;9.23;2.45;;;10.00;99.90;;;;;;5045966;28;20496;-65
2022/05/28 05:32:46;;;;;;;8.73;2.58;;;10.00;99.90;;;;;;5038287;28;20041;-67
2022/05/28 05:35:13;;;;;;;14.10;2.63;;;10.10;99.90;;;;;;5034752;28;20109;-67
2022/05/28 05:37:40;;;;;;;9.50;2.67;;;10.10;99.90;;;;;;5030299;28;20406;-68
2022/05/28 05:40:09;;;;;;;8.13;2.42;;;10.20;99.90;;;;;;5032137;28;20087;-68
2022/05/28 05:42:37;;;;;;;10.32;2.90;;;10.20;99.90;;;;;;5026787;28;20041;-67
2022/05/28 05:45:05;;;;;;;8.45;2.50;;;10.20;99.90;;;;;;5035727;28;20408;-68
2022/05/28 05:47:32;;;;;;;10.10;2.53;;;10.10;99.90;;;;;;5035690;28;20072;-68
2022/05/28 05:50:00;;;;;;;11.98;2.70;;;10.20;99.90;;;;;;5037082;28;20059;-67
2022/05/28 05:52:27;;;;;;;12.98;3.60;;;10.30;99.90;;;;;;5037061;28;20072;-67
2022/05/28 05:54:54;;;;;;;8.85;2.45;;;10.40;99.90;;;;;;5040780;28;20129;-68
2022/05/28 05:57:22;;;;;;;8.23;2.42;;;10.50;99.90;;;;;;5031953;28;20046;-67
2022/05/28 05:59:50;;;;;;;12.65;2.63;;;10.40;99.90;;;;;;5029470;28;20505;-68
2022/05/28 06:02:17;;;;;;;10.18;2.45;;;10.50;99.90;;;;;;5030133;28;20072;-67
2022/05/28 06:04:45;;;;;;;6.30;2.55;;;10.40;99.90;;;;;;5021100;28;20512;-67
2022/05/28 06:07:13;;;;;;;8.52;2.30;;;10.60;99.90;;;;;;5022249;28;20505;-66
2022/05/28 06:09:41;;;;;;;8.90;2.75;;;10.60;99.90;;;;;;5032449;28;20060;-67
2022/05/28 06:12:08;;;;;;;10.70;2.47;;;10.60;99.90;;;;;;5034358;28;20108;-66
2022/05/28 06:14:36;;;;;;;11.68;3.20;;;10.50;99.90;;;;;;5048339;28;20037;-67
2022/05/28 06:17:03;;;;;;;10.98;2.95;;;10.60;99.90;;;;;;5035991;28;20041;-67
2022/05/28 06:19:31;;;;;;;9.55;2.67;;;10.70;99.90;;;;;;5045984;28;20053;-68
2022/05/28 06:22:00;;;;;;;8.98;2.67;;;10.70;99.90;;;;;;5045627;28;20033;-67
2022/05/28 06:24:27;;;;;;;8.98;2.35;;;10.80;99.90;;;;;;5027262;28;20080;-67
2022/05/28 06:27:00;;;;;;;10.63;3.22;;;10.80;99.90;;;;;;5022940;28;20500;-68
2022/05/28 06:29:28;;;;;;;11.88;2.60;;;10.90;99.90;;;;;;5035781;28;20063;-67
2022/05/28 06:31:56;;;;;;;11.95;2.22;;;11.00;99.90;;;;;;5036720;28;20046;-67
2022/05/28 06:34:23;;;;;;;10.63;2.35;;;11.10;99.90;;;;;;5029255;28;20136;-66
2022/05/28 06:36:51;;;;;;;9.90;2.08;;;11.10;99.90;;;;;;5031243;28;20515;-65
2022/05/28 06:39:18;;;;;;;11.40;2.38;;;11.20;99.90;;;;;;5030407;28;20128;-68
2022/05/28 06:41:45;;;;;;;14.13;2.78;;;11.20;99.90;;;;;;5028956;28;21146;-67
2022/05/28 06:44:19;;;;;;;13.40;2.50;;;11.20;99.90;;;;;;5027347;28;20061;-65
2022/05/28 06:46:47;;;;;;;10.00;2.40;;;11.30;99.90;;;;;;5034923;28;20034;-68
2022/05/28 06:49:14;;;;;;;12.15;2.33;;;11.30;99.90;;;;;;5033230;28;20131;-67
2022/05/28 06:51:42;;;;;;;7.55;2.17;;;11.30;99.90;;;;;;5037244;28;20045;-67
2022/05/28 06:54:09;;;;;;;11.77;2.20;;;11.50;99.90;;;;;;5042003;28;20045;-68
2022/05/28 06:56:36;;;;;;;8.65;2.50;;;11.40;99.90;;;;;;5036712;28;20053;-68
2022/05/28 06:59:03;;;;;;;10.77;1.98;;;11.50;99.90;;;;;;5029139;28;20493;-67
2022/05/28 07:01:36;;;;;;;10.57;2.10;;;11.50;99.90;;;;;;5020234;28;20527;-68
2022/05/28 07:04:04;;;;;;;8.13;2.22;;;11.50;99.90;;;;;;5035289;28;20125;-68
2022/05/28 07:06:33;;;;;;;9.32;2.10;;;11.70;99.90;;;;;;5038669;28;20048;-67
2022/05/28 07:09:00;;;;;;;10.18;2.50;;;11.80;99.90;;;;;;5035451;28;20041;-66
2022/05/28 07:11:28;;;;;;;9.88;2.60;;;11.80;99.90;;;;;;5028841;28;20497;-68
2022/05/28 07:13:55;;;;;;;10.35;2.28;;;11.90;99.90;;;;;;5021974;28;20042;-67
2022/05/28 07:16:22;;;;;;;13.38;2.83;;;11.80;99.90;;;;;;5027060;28;20030;-68
2022/05/28 07:18:49;;;;;;;11.32;1.92;;;11.90;99.90;;;;;;5031134;28;20028;-67
2022/05/28 07:21:17;;;;;;;10.02;2.28;;;11.90;99.90;;;;;;5036786;28;20071;-67
2022/05/28 07:23:44;;;;;;;9.00;2.00;;;12.00;99.90;;;;;;5039398;28;20125;-68
2022/05/28 07:26:15;;;;;;;11.77;2.55;;;12.10;99.90;;;;;;5034863;28;20042;-67
2022/05/28 07:28:45;;;;;;;7.82;2.15;;;12.20;99.90;;;;;;5037874;28;20053;-66
2022/05/28 07:31:20;;;;;;;9.10;2.10;;;12.30;99.90;;;;;;5026259;28;20056;-66
2022/05/28 07:33:49;;;;;;;9.07;2.00;;;12.30;99.90;;;;;;5035441;28;20052;-67
2022/05/28 07:36:22;;;;;;;8.90;2.03;;;12.40;99.90;;;;;;5037845;28;20125;-68
2022/05/28 07:38:51;;;;;;;12.18;2.17;;;12.50;99.90;;;;;;5039087;28;20049;-67
2022/05/28 07:41:21;;;;;;;11.13;2.38;;;12.60;99.90;;;;;;5037746;28;20533;-67
2022/05/28 07:43:50;;;;;;;10.52;2.17;;;12.90;99.90;;;;;;5037506;28;20041;-66
2022/05/28 07:46:29;;;;;;;12.18;1.58;;;12.90;99.90;;;;;;5040903;28;20488;-67
2022/05/28 07:48:58;;;;;;;7.68;1.98;;;13.10;99.90;;;;;;5030077;28;20099;-66
2022/05/28 07:51:26;;;;;;;7.35;1.70;;;13.40;99.90;;;;;;5032030;28;20123;-67
2022/05/28 07:53:54;;;;;;;8.05;2.00;;;13.60;99.90;;;;;;5035111;28;20041;-66
2022/05/28 07:56:21;;;;;;;8.43;2.08;;;13.90;99.90;;;;;;5032708;28;20084;-68
2022/05/28 07:58:54;;;;;;;9.52;1.95;;;14.00;99.90;;;;;;5032404;28;20072;-68
2022/05/28 08:01:31;;;;;;;11.00;2.22;;;14.00;99.90;;;;;;5031503;28;20469;-66
2022/05/28 08:04:06;;;;;;;6.30;1.58;;;14.20;99.90;;;;;;5030682;28;20034;-68
2022/05/28 08:06:33;;;;;;;9.65;2.53;;;14.30;99.90;;;;;;5029047;28;20049;-67
2022/05/28 08:09:01;;;;;;;9.10;2.10;;;14.10;99.90;;;;;;5032477;28;20057;-67
2022/05/28 08:11:31;;;;;;;5.97;2.28;;;14.10;99.90;;;;;;5044271;28;20137;-67
2022/05/28 08:13:58;;;;;;;6.28;1.70;;;14.20;99.90;;;;;;5042481;28;20049;-67
2022/05/28 08:16:32;;;;;;;8.02;1.77;;;14.00;99.90;;;;;;5036281;28;20151;-67
2022/05/28 08:19:00;;;;;;;5.18;1.70;;;14.00;99.90;;;;;;5040353;28;20041;-68
2022/05/28 08:24:13;;;;;;;7.15;1.73;;;13.70;99.90;;;;;;5024388;28;20666;-68
2022/05/28 08:26:40;;;;;;;8.90;1.77;;;13.70;99.90;;;;;;5031310;28;20045;-67
2022/05/28 08:29:07;;;;;;;6.47;1.35;;;13.80;99.90;;;;;;5031771;28;20057;-67
2022/05/28 08:31:35;;;;;;;7.13;1.55;;;13.90;99.90;;;;;;5030848;28;20392;-67
2022/05/28 08:34:02;;;;;;;4.63;1.20;;;14.10;99.90;;;;;;5039827;28;20419;-68
2022/05/28 08:36:29;;;;;;;4.75;1.40;;;14.20;99.90;;;;;;5036096;28;20044;-68
2022/05/28 08:38:57;;;;;;;5.60;1.98;;;14.20;99.90;;;;;;5040862;28;20128;-68
2022/05/28 08:41:48;;;;;;;6.00;1.77;;;14.50;99.90;;;;;;5030914;28;20511;-67
2022/05/28 08:44:18;;;;;;;6.55;1.50;;;14.60;99.90;;;;;;5029527;28;20398;-66
2022/05/28 08:46:53;;;;;;;5.93;1.77;;;14.50;99.90;;;;;;5030117;28;20037;-66
2022/05/28 08:49:27;;;;;;;9.90;2.22;;;14.60;99.90;;;;;;5034419;28;20127;-66
2022/05/28 08:52:03;;;;;;;7.00;1.58;;;14.80;99.90;;;;;;5035329;28;20041;-66
2022/05/28 08:54:56;;;;;;;6.97;1.67;;;14.80;99.90;;;;;;5041244;28;20064;-66
2022/05/28 08:57:58;;;;;;;7.22;1.65;;;14.70;99.90;;;;;;5026211;28;20458;-66
2022/05/28 09:00:46;;;;;;;6.97;1.38;;;14.50;99.90;;;;;;5029298;28;20053;-68
2022/05/28 09:03:33;;;;;;;5.13;1.30;;;14.40;99.90;;;;;;5030938;28;20479;-68
2022/05/28 09:06:16;;;;;;;6.28;1.50;;;14.40;99.90;;;;;;5033985;28;20033;-68
2022/05/28 09:08:51;;;;;;;6.00;1.52;;;14.20;99.90;;;;;;5030537;28;20069;-67
2022/05/28 09:11:22;;;;;;;5.60;1.73;;;14.40;99.90;;;;;;5030647;28;20495;-67
2022/05/28 09:13:51;;;;;;;7.15;2.08;;;14.30;99.90;;;;;;5033717;28;20417;-68
2022/05/28 09:16:29;;;;;;;6.30;1.83;;;14.10;99.90;;;;;;5022978;28;20050;-68
2022/05/28 09:19:02;;;;;;;9.43;1.75;;;14.30;99.90;;;;;;5039202;28;20501;-68
2022/05/28 09:21:29;;;;;;;6.35;1.88;;;14.20;99.90;;;;;;5030214;28;20393;-68
2022/05/28 09:24:05;;;;;;;9.15;2.20;;;14.00;99.90;;;;;;5034640;28;20515;-68
2022/05/28 09:26:55;;;;;;;5.50;1.70;;;14.00;99.90;;;;;;5020486;28;20037;-68
2022/05/28 09:29:47;;;;;;;7.00;1.52;;;14.20;99.90;;;;;;5033725;28;20065;-68
2022/05/28 09:32:43;;;;;;;7.10;1.77;;;14.20;99.90;;;;;;5028654;28;20048;-68
2022/05/28 09:35:13;;;;;;;12.63;1.85;;;14.30;99.90;;;;;;5030386;28;20045;-68
2022/05/28 09:38:05;;;;;;;9.15;2.03;;;14.40;99.90;;;;;;5036078;28;20389;-69
2022/05/28 09:41:21;;;;;;;7.40;1.67;;;14.50;99.90;;;;;;5034733;28;20060;-68
2022/05/28 09:44:02;;;;;;;12.82;2.70;;;14.60;99.90;;;;;;5033857;28;20514;-68
2022/05/28 09:46:39;;;;;;;6.38;1.85;;;14.90;99.90;;;;;;5031845;28;20045;-68
2022/05/28 09:49:17;;;;;;;7.38;1.90;;;14.90;99.90;;;;;;5035790;28;20128;-68
2022/05/28 09:51:55;;;;;;;8.35;1.75;;;15.00;99.90;;;;;;5035832;28;20083;-68
2022/05/28 09:54:30;;;;;;;6.65;1.58;;;15.00;99.90;;;;;;5041011;28;20788;-68
2022/05/28 09:57:09;;;;;;;7.90;1.60;;;14.80;99.90;;;;;;5013786;28;20220;-68
2022/05/28 09:59:55;;;;;;;7.30;1.90;;;14.90;99.90;;;;;;5030252;28;20476;-68
2022/05/28 10:05:53;;;;;;;6.15;1.92;;;14.70;99.90;;;;;;5029121;28;20588;-68
2022/05/28 10:08:28;;;;;;;6.47;1.60;;;14.40;99.90;;;;;;5039342;28;20041;-68
2022/05/28 10:11:00;;;;;;;6.05;1.80;;;14.50;99.90;;;;;;5028808;28;20049;-68
2022/05/28 10:13:30;;;;;;;;;;;14.70;99.90;;;;;;5022941;28;20054;-68
2022/05/28 10:16:00;;;;;;;4.93;1.48;;;14.80;99.90;;;;;;5030408;28;19924;-68
2022/05/28 10:18:55;;;;;;;6.70;1.50;;;15.00;99.90;;;;;;5037662;28;20053;-68
2022/05/28 10:21:33;;;;;;;4.00;1.38;;;15.40;99.90;;;;;;5032901;28;20516;-67
2022/05/28 10:24:05;;;;;;;5.32;1.27;;;15.70;99.90;;;;;;5038654;28;20443;-67
2022/05/28 10:26:43;;;;;;;5.28;1.60;;;16.00;99.90;;;;;;5035746;28;20060;-68
2022/05/28 10:29:28;;;;;;;7.03;1.77;;;16.40;99.90;;;;;;5014132;28;20038;-68
2022/05/28 10:31:59;;;;;;;6.35;1.70;;;16.20;99.90;;;;;;5026596;28;20120;-68
2022/05/28 10:34:35;;;;;;;10.43;2.80;;;15.90;99.90;;;;;;5022402;28;20056;-68
2022/05/28 10:37:07;;;;;;;7.85;1.65;;;16.00;99.90;;;;;;5036199;28;20060;-68
2022/05/28 10:39:37;;;;;;;8.65;1.67;;;15.70;99.90;;;;;;5034469;28;20492;-67
2022/05/28 10:42:08;;;;;;;10.43;2.28;;;15.50;99.90;;;;;;5026661;28;20071;-68
2022/05/28 10:44:36;;;;;;;5.47;1.48;;;15.30;99.90;;;;;;5027715;28;20046;-68
2022/05/28 10:47:12;;;;;;;7.80;2.20;;;15.20;99.90;;;;;;5028857;28;20065;-67
2022/05/28 10:50:06;;;;;;;6.85;1.98;;;15.40;99.90;;;;;;5038508;28;20132;-67
2022/05/28 10:52:41;;;;;;;6.50;1.65;;;15.50;99.90;;;;;;5038292;28;20029;-68
2022/05/28 10:55:13;;;;;;;5.00;1.50;;;15.60;99.90;;;;;;5032112;28;20444;-68
2022/05/28 10:57:57;;;;;;;6.30;1.58;;;15.50;99.90;;;;;;5033501;28;20053;-69
2022/05/28 11:00:52;;;;;;;3.83;1.80;;;15.60;99.90;;;;;;5024799;28;20038;-68
2022/05/28 11:03:58;;;;;;;5.80;1.30;;;16.00;99.90;;;;;;5017711;28;20033;-69
2022/05/28 11:06:35;;;;;;;5.07;1.35;;;16.20;99.90;;;;;;5045710;28;20045;-68
2022/05/28 11:09:12;;;;;;;5.63;1.65;;;16.60;99.90;;;;;;5040641;28;20045;-68
2022/05/28 11:11:54;;;;;;;3.50;1.17;;;17.10;99.90;;;;;;5036903;28;20441;-68
2022/05/28 11:15:12;;;;;;;4.88;1.30;;;16.90;99.90;;;;;;5044893;28;20396;-67
2022/05/28 11:18:17;;;;;;;6.50;1.38;;;17.60;99.90;;;;;;4987811;28;20054;-68
2022/05/28 11:21:03;;;;;;;3.22;1.35;;;17.70;99.90;;;;;;4987998;28;20295;-68
2022/05/28 11:23:33;;;;;;;7.40;1.70;;;17.30;99.90;;;;;;4989899;28;20047;-68
2022/05/28 11:26:06;;;;;;;3.00;1.13;;;17.30;99.90;;;;;;5000716;28;20056;-69
2022/05/28 11:28:57;;;;;;;4.25;1.38;;;17.20;99.90;;;;;;4987429;28;20053;-69
2022/05/28 11:31:38;;;;;;;4.15;1.38;;;17.10;99.90;;;;;;4983786;28;20056;-70
2022/05/28 11:34:17;;;;;;;3.47;1.30;;;17.20;99.90;;;;;;4993452;28;20046;-69
2022/05/28 11:36:51;;;;;;;5.05;1.20;;;17.50;99.90;;;;;;4985247;28;20069;-68
2022/05/28 11:39:18;;;;;;;4.00;1.33;;;17.70;99.90;;;;;;4983397;28;20046;-69
2022/05/28 11:42:17;;;;;;;5.97;1.48;;;17.90;99.90;;;;;;4984796;28;20379;-69
2022/05/28 11:44:50;;;;;;;4.30;1.50;;;17.50;99.90;;;;;;4978817;28;20450;-69
2022/05/28 11:47:35;;;;;;;4.22;1.70;;;17.80;99.90;;;;;;4968387;28;20042;-70
2022/05/28 11:53:15;;;;;;;5.10;1.60;;;18.50;99.90;;;;;;5029413;28;20041;-69
2022/05/28 11:55:46;;;;;;;6.67;1.60;;;18.40;99.90;;;;;;5010400;28;20140;-68
2022/05/28 11:58:17;;;;;;;5.60;1.38;;;18.50;99.90;;;;;;5030250;28;20327;-68
2022/05/28 12:00:51;;;;;;;6.65;1.52;;;18.50;99.90;;;;;;5020597;28;20044;-69
2022/05/28 12:03:22;;;;;;;4.30;1.45;;;18.90;99.90;;;;;;5028594;28;20045;-70
2022/05/28 12:06:11;;;;;;;6.68;1.50;;;18.60;99.90;;;;;;5029503;28;20551;-70
2022/05/28 12:08:42;;;;;;;5.45;1.50;;;18.80;99.90;;;;;;5023486;28;20045;-68
2022/05/28 12:11:30;;;;;;;7.40;1.85;;;19.10;99.90;;;;;;5029778;28;20080;-70
2022/05/28 12:14:03;;;;;;;4.47;1.17;;;19.60;99.90;;;;;;5024237;28;20056;-69
2022/05/28 12:16:38;;;;;;;6.68;1.90;;;19.90;99.90;;;;;;5024626;28;20716;-69
2022/05/28 12:19:06;;;;;;;4.80;1.55;;;19.70;99.90;;;;;;5044705;28;20463;-69
2022/05/28 12:21:36;;;;;;;4.65;1.50;;;20.20;98.80;;;;;;5043086;28;20145;-67
2022/05/28 12:24:04;;;;;;;4.38;1.20;;;20.20;98.60;;;;;;5046644;28;20053;-68
2022/05/28 12:29:45;;;;;;;5.07;1.63;;;21.30;97.70;;;;;;5033423;28;20089;-69
2022/05/28 12:32:18;;;;;;;4.73;1.40;;;20.90;96.60;;;;;;5039531;28;20726;-68
2022/05/28 12:34:54;;;;;;;5.47;1.40;;;20.60;94.60;;;;;;5031810;28;20050;-70
2022/05/28 12:37:27;;;;;;;4.70;1.08;;;19.70;94.80;;;;;;5027012;28;20065;-69
2022/05/28 12:40:08;;;;;;;4.38;1.45;;;19.60;95.00;;;;;;5026786;28;20052;-70
2022/05/28 12:42:36;;;;;;;5.20;1.50;;;20.30;94.80;;;;;;5029545;28;20592;-69
2022/05/28 12:45:18;;;;;;;8.73;1.75;;;20.20;94.70;;;;;;5030613;28;20046;-70
2022/05/28 12:47:46;;;;;;;5.40;1.58;;;19.90;95.30;;;;;;5031901;28;20096;-69
2022/05/28 12:50:21;;;;;;;4.20;1.52;;;19.20;96.10;;;;;;5033842;28;20033;-68
2022/05/28 12:52:55;;;;;;;3.80;1.58;;;19.30;96.90;;;;;;5033700;28;20048;-68
2022/05/28 12:55:31;;;;;;;3.95;1.35;;;18.60;96.60;;;;;;5029586;28;20481;-70
2022/05/28 12:58:11;;;;;;;6.00;1.40;;;19.00;98.10;;;;;;5027000;28;20050;-69
2022/05/28 13:00:50;;;;;;;7.00;1.30;;;19.60;96.70;;;;;;5015178;28;20042;-68
2022/05/28 13:03:19;;;;;;;5.22;1.40;;;20.70;96.80;;;;;;5031461;28;20042;-71
2022/05/28 13:06:10;;;;;;;5.18;1.95;;;20.90;94.20;;;;;;5044601;28;20549;-69
2022/05/28 13:08:48;;;;;;;6.57;1.37;;;20.80;94.10;;;;;;5034742;28;20048;-69
2022/05/28 13:11:25;;;;;;;3.30;1.20;;;21.20;94.50;;;;;;5040744;28;20465;-69
2022/05/28 13:14:09;;;;;;;4.10;1.40;;;21.20;94.20;;;;;;5044302;28;20051;-71
2022/05/28 13:16:40;;;;;;;4.72;1.40;;;20.40;94.00;;;;;;5032534;28;20038;-68
2022/05/28 13:19:12;;;;;;;4.72;1.40;;;20.90;94.10;;;;;;5038028;28;20049;-70
2022/05/28 13:21:54;;;;;;;4.55;1.23;;;20.40;92.60;;;;;;5031756;28;20100;-70
2022/05/28 13:24:56;;;;;;;4.72;1.40;;;19.90;93.40;;;;;;5029239;28;20572;-70
2022/05/28 13:27:32;;;;;;;9.40;1.40;;;20.60;93.10;;;;;;5028056;28;20037;-70
2022/05/28 13:30:07;;;;;;;6.40;1.60;;;21.50;92.60;;;;;;5026923;28;20769;-69